createdAt,value
2023-01-18T00:00:02.525Z,8.95
2023-01-18T00:02:34.040Z,7.45
2023-01-18T00:05:02.780Z,9.48
2023-01-18T00:07:34.691Z,7.77
2023-01-18T00:10:03.793Z,8.65
2023-01-18T00:12:36.623Z,9.77
2023-01-18T00:15:07.339Z,7.65
2023-01-18T00:17:47.707Z,8.00
2023-01-18T00:20:16.582Z,7.70
2023-01-18T00:22:45.402Z,8.68
2023-01-18T00:25:14.267Z,8.07
2023-01-18T00:27:47.940Z,7.75
2023-01-18T00:30:21.488Z,8.18
2023-01-18T00:32:50.368Z,7.10
2023-01-18T00:35:22.120Z,8.50
2023-01-18T00:37:54.244Z,8.40
2023-01-18T00:40:28.881Z,11.43
2023-01-18T00:43:15.787Z,7.95
2023-01-18T00:45:44.584Z,8.20
2023-01-18T00:48:15.351Z,7.53
2023-01-18T00:50:44.043Z,8.68
2023-01-18T00:53:17.043Z,8.98
2023-01-18T00:55:48.749Z,8.02
2023-01-18T00:58:20.766Z,10.43
2023-01-18T01:01:03.077Z,7.13
2023-01-18T01:03:52.944Z,8.20
2023-01-18T01:06:45.420Z,12.98
2023-01-18T01:09:33.828Z,9.57
2023-01-18T01:12:25.254Z,11.27
2023-01-18T01:15:13.899Z,9.98
2023-01-18T01:18:02.024Z,10.55
2023-01-18T01:20:49.837Z,9.20
2023-01-18T01:23:37.904Z,9.50
2023-01-18T01:26:08.359Z,10.30
2023-01-18T01:28:37.163Z,8.63
2023-01-18T01:31:10.406Z,7.85
2023-01-18T01:33:39.636Z,8.45
2023-01-18T01:36:10.925Z,10.48
2023-01-18T01:38:41.502Z,8.50
2023-01-18T01:41:40.597Z,7.32
2023-01-18T01:44:48.190Z,9.63
2023-01-18T01:47:28.373Z,8.32
2023-01-18T01:49:59.617Z,10.13
2023-01-18T01:52:33.756Z,8.17
2023-01-18T01:55:08.463Z,8.77
2023-01-18T01:57:40.400Z,8.88
2023-01-18T02:00:13.655Z,8.88
2023-01-18T02:02:46.764Z,9.70
2023-01-18T02:05:23.827Z,9.43
2023-01-18T02:08:13.903Z,7.20
2023-01-18T02:10:49.406Z,7.70
2023-01-18T02:13:23.129Z,9.65
2023-01-18T02:19:15.812Z,8.73
2023-01-18T02:21:53.690Z,9.27
2023-01-18T02:25:07.416Z,7.93
2023-01-18T02:27:43.771Z,7.53
2023-01-18T02:30:29.748Z,9.45
2023-01-18T02:33:11.683Z,9.30
2023-01-18T02:35:51.066Z,10.00
2023-01-18T02:38:36.824Z,8.13
2023-01-18T02:42:20.274Z,8.23
2023-01-18T02:45:08.944Z,8.27
2023-01-18T02:48:13.131Z,7.57
2023-01-18T02:50:47.312Z,7.55
2023-01-18T02:53:20.467Z,9.18
2023-01-18T02:59:12.676Z,7.25
2023-01-18T03:01:45.914Z,8.97
2023-01-18T03:04:19.476Z,7.57
2023-01-18T03:06:53.511Z,6.85
2023-01-18T03:09:39.053Z,7.28
2023-01-18T03:12:15.538Z,8.52
2023-01-18T03:14:52.197Z,7.20
2023-01-18T03:17:26.509Z,9.45
2023-01-18T03:20:11.659Z,8.60
2023-01-18T03:23:03.071Z,8.23
2023-01-18T03:25:42.202Z,8.27
2023-01-18T03:28:32.814Z,7.80
2023-01-18T03:31:22.132Z,11.13
2023-01-18T03:33:55.216Z,8.70
2023-01-18T03:36:36.844Z,8.35
2023-01-18T03:39:11.443Z,9.30
2023-01-18T03:41:45.422Z,8.03
2023-01-18T03:44:20.563Z,8.48
2023-01-18T03:46:49.556Z,9.77
2023-01-18T03:49:20.615Z,12.13
2023-01-18T03:52:00.822Z,7.57
2023-01-18T03:54:36.825Z,8.27
2023-01-18T03:57:10.887Z,8.25
2023-01-18T03:59:40.733Z,9.10
2023-01-18T04:02:12.577Z,9.38
2023-01-18T04:04:41.358Z,7.32
2023-01-18T04:07:13.875Z,9.67
2023-01-18T04:09:42.672Z,6.47
2023-01-18T04:12:11.537Z,8.23
2023-01-18T04:14:40.295Z,7.93
2023-01-18T04:17:09.152Z,8.43
2023-01-18T04:19:37.925Z,9.07
2023-01-18T04:22:09.618Z,8.70
2023-01-18T04:24:39.652Z,7.80
2023-01-18T04:27:09.930Z,7.75
2023-01-18T04:29:38.779Z,8.85
2023-01-18T04:32:11.386Z,7.93
2023-01-18T04:34:41.726Z,8.25
2023-01-18T04:37:12.144Z,8.63
2023-01-18T04:39:42.063Z,11.02
2023-01-18T04:42:10.939Z,9.15
2023-01-18T04:44:39.836Z,7.80
2023-01-18T04:47:09.771Z,7.78
2023-01-18T04:49:38.342Z,7.63
2023-01-18T04:52:07.328Z,7.85
2023-01-18T04:54:37.032Z,9.43
2023-01-18T04:57:07.579Z,9.53
2023-01-18T04:59:42.576Z,10.10
2023-01-18T05:02:15.506Z,8.68
2023-01-18T05:04:45.271Z,9.38
2023-01-18T05:07:18.398Z,8.90
2023-01-18T05:09:47.763Z,8.73
2023-01-18T05:12:19.887Z,9.88
2023-01-18T05:14:48.594Z,8.48
2023-01-18T05:17:27.642Z,9.77
2023-01-18T05:19:57.256Z,9.15
2023-01-18T05:22:26.123Z,9.43
2023-01-18T05:24:55.067Z,10.70
2023-01-18T05:27:28.184Z,10.20
2023-01-18T05:29:59.804Z,9.48
2023-01-18T05:32:28.938Z,9.07
2023-01-18T05:34:57.982Z,8.80
2023-01-18T05:37:26.768Z,8.90
2023-01-18T05:39:55.557Z,14.95
2023-01-18T05:42:24.550Z,10.75
2023-01-18T05:44:54.365Z,10.88
2023-01-18T05:47:22.973Z,9.37
2023-01-18T05:49:54.481Z,8.38
2023-01-18T05:52:25.766Z,9.90
2023-01-18T05:54:54.588Z,8.20
2023-01-18T05:57:23.425Z,9.13
2023-01-18T05:59:52.051Z,8.43
2023-01-18T06:02:22.034Z,7.43
2023-01-18T06:04:50.528Z,10.88
2023-01-18T06:07:19.626Z,8.82
2023-01-18T06:09:48.314Z,6.90
2023-01-18T06:12:16.903Z,7.60
2023-01-18T06:14:45.622Z,7.28
2023-01-18T06:17:14.170Z,7.43
2023-01-18T06:19:44.005Z,9.20
2023-01-18T06:22:12.463Z,8.98
2023-01-18T06:24:41.595Z,7.43
2023-01-18T06:27:10.206Z,8.13
2023-01-18T06:29:38.745Z,8.43
2023-01-18T06:32:07.378Z,8.10
2023-01-18T06:34:36.787Z,12.52
2023-01-18T06:37:06.598Z,30.67
2023-01-18T06:39:35.241Z,23.25
2023-01-18T06:42:03.713Z,9.95
2023-01-18T06:44:32.195Z,12.35
2023-01-18T06:47:00.776Z,7.57
2023-01-18T06:49:30.014Z,7.73
2023-01-18T06:51:58.468Z,9.43
2023-01-18T06:54:28.182Z,8.15
2023-01-18T06:56:56.593Z,9.13
2023-01-18T06:59:24.965Z,9.13
2023-01-18T07:01:54.702Z,6.97
2023-01-18T07:04:23.522Z,8.70
2023-01-18T07:06:52.123Z,10.48
2023-01-18T07:09:21.111Z,11.55
2023-01-18T07:11:50.727Z,9.95
2023-01-18T07:14:19.240Z,9.03
2023-01-18T07:16:47.745Z,8.55
2023-01-18T07:19:16.701Z,9.73
2023-01-18T07:21:45.100Z,9.07
2023-01-18T07:24:13.647Z,7.68
2023-01-18T07:26:42.164Z,8.73
2023-01-18T07:29:11.809Z,9.35
2023-01-18T07:31:43.449Z,7.25
2023-01-18T07:34:12.259Z,8.05
2023-01-18T07:36:41.988Z,8.60
2023-01-18T07:39:11.275Z,6.80
2023-01-18T07:41:39.974Z,8.38
2023-01-18T07:44:11.906Z,6.57
2023-01-18T07:46:42.589Z,7.65
2023-01-18T07:49:11.094Z,5.65
2023-01-18T07:51:39.978Z,7.93
2023-01-18T07:54:08.938Z,8.10
2023-01-18T07:56:37.668Z,6.20
2023-01-18T07:59:06.124Z,6.47
2023-01-18T08:01:35.716Z,5.53
2023-01-18T08:04:05.307Z,6.07
2023-01-18T08:06:33.829Z,6.72
2023-01-18T08:09:03.564Z,5.30
2023-01-18T08:11:35.214Z,5.50
2023-01-18T08:14:03.769Z,5.25
2023-01-18T08:16:32.589Z,6.00
2023-01-18T08:19:02.572Z,7.70
2023-01-18T08:21:32.115Z,5.28
2023-01-18T08:24:00.897Z,7.63
2023-01-18T08:26:29.543Z,5.47
2023-01-18T08:28:59.265Z,8.67
2023-01-18T08:31:28.191Z,9.18
2023-01-18T08:33:56.710Z,6.05
2023-01-18T08:36:28.484Z,7.75
2023-01-18T08:38:58.013Z,6.53
2023-01-18T08:41:28.591Z,6.50
2023-01-18T08:43:58.128Z,6.15
2023-01-18T08:46:27.094Z,6.18
2023-01-18T08:48:57.575Z,6.13
2023-01-18T08:51:27.188Z,5.15
2023-01-18T08:53:57.421Z,4.77
2023-01-18T08:56:26.615Z,4.28
2023-01-18T08:58:55.126Z,4.93
2023-01-18T09:01:24.212Z,5.03
2023-01-18T09:03:55.856Z,6.43
2023-01-18T09:06:24.530Z,5.37
2023-01-18T09:08:54.336Z,5.78
2023-01-18T09:11:22.826Z,6.03
2023-01-18T09:14:00.699Z,5.93
2023-01-18T09:16:30.499Z,5.78
2023-01-18T09:18:59.905Z,5.13
2023-01-18T09:21:29.328Z,5.63
2023-01-18T09:23:59.802Z,6.15
2023-01-18T09:26:31.782Z,6.88
2023-01-18T09:29:00.422Z,6.40
2023-01-18T09:31:30.701Z,5.50
2023-01-18T09:34:17.519Z,8.57
2023-01-18T09:36:47.229Z,6.38
2023-01-18T09:39:19.654Z,6.03
2023-01-18T09:41:53.726Z,9.68
2023-01-18T09:44:30.958Z,6.37
2023-01-18T09:47:05.254Z,8.02
2023-01-18T09:49:38.364Z,6.75
2023-01-18T09:52:25.336Z,7.75
2023-01-18T09:55:02.087Z,6.18
2023-01-18T09:57:44.715Z,6.87
2023-01-18T10:00:22.617Z,6.20
2023-01-18T10:02:55.555Z,6.18
2023-01-18T10:05:28.168Z,7.15
2023-01-18T10:08:04.763Z,7.20
2023-01-18T10:10:38.939Z,6.27
2023-01-18T10:13:32.283Z,6.47
2023-01-18T10:16:02.593Z,5.82
2023-01-18T10:18:31.122Z,5.13
2023-01-18T10:21:01.820Z,6.07
2023-01-18T10:23:35.834Z,6.17
2023-01-18T10:26:08.946Z,5.05
2023-01-18T10:28:45.272Z,5.93
2023-01-18T10:31:31.185Z,6.93
2023-01-18T10:34:02.726Z,5.63
2023-01-18T10:36:34.759Z,4.50
2023-01-18T10:39:06.949Z,5.68
2023-01-18T10:41:38.511Z,5.22
2023-01-18T10:44:09.350Z,5.60
2023-01-18T10:46:41.153Z,5.40
2023-01-18T10:49:35.739Z,5.10
2023-01-18T10:52:34.324Z,5.55
2023-01-18T10:55:07.600Z,5.18
2023-01-18T10:57:44.444Z,5.00
2023-01-18T11:00:23.077Z,4.90
2023-01-18T11:02:57.641Z,5.80
2023-01-18T11:05:31.378Z,6.10
2023-01-18T11:08:13.405Z,5.55
2023-01-18T11:10:42.129Z,4.80
2023-01-18T11:13:28.172Z,5.22
2023-01-18T11:16:10.517Z,5.60
2023-01-18T11:18:40.335Z,5.30
2023-01-18T11:21:12.148Z,6.07
2023-01-18T11:23:43.688Z,5.93
2023-01-18T11:26:16.903Z,6.15
2023-01-18T11:28:51.350Z,5.50
2023-01-18T11:31:22.359Z,5.28
2023-01-18T11:33:54.640Z,6.88
2023-01-18T11:36:35.438Z,5.75
2023-01-18T11:39:27.290Z,7.50
2023-01-18T11:42:23.918Z,6.53
2023-01-18T11:45:06.394Z,6.30
2023-01-18T11:47:51.543Z,8.77
2023-01-18T11:50:29.050Z,5.70
2023-01-18T11:53:20.563Z,7.72
2023-01-18T11:55:56.351Z,6.73
2023-01-18T11:58:29.355Z,8.57
2023-01-18T12:01:21.694Z,6.55
2023-01-18T12:03:56.524Z,6.32
2023-01-18T12:06:38.905Z,5.93
2023-01-18T12:09:22.196Z,5.83
2023-01-18T12:12:09.804Z,8.52
2023-01-18T12:14:56.751Z,6.15
2023-01-18T12:17:45.952Z,8.40
2023-01-18T12:20:25.878Z,6.40
2023-01-18T12:23:22.550Z,7.13
2023-01-18T12:26:14.006Z,5.72
2023-01-18T12:28:57.805Z,11.60
2023-01-18T12:31:38.568Z,6.55
2023-01-18T12:34:14.553Z,6.45
2023-01-18T12:37:04.047Z,5.87
2023-01-18T12:39:53.172Z,5.57
2023-01-18T12:42:30.825Z,6.13
2023-01-18T12:45:14.741Z,7.22
2023-01-18T12:47:48.595Z,7.95
2023-01-18T12:50:24.963Z,6.53
2023-01-18T12:52:57.264Z,5.53
2023-01-18T12:55:27.012Z,5.90
2023-01-18T12:57:59.153Z,6.50
2023-01-18T13:00:37.675Z,8.13
2023-01-18T13:03:11.579Z,7.50
2023-01-18T13:05:52.492Z,6.53
2023-01-18T13:08:40.094Z,7.13
2023-01-18T13:11:12.182Z,7.43
2023-01-18T13:13:42.564Z,5.75
2023-01-18T13:16:20.971Z,6.17
2023-01-18T13:18:56.007Z,6.80
2023-01-18T13:21:38.835Z,7.22
2023-01-18T13:24:16.731Z,6.75
2023-01-18T13:26:45.495Z,6.07
2023-01-18T13:29:22.447Z,5.57
2023-01-18T13:31:51.313Z,7.32
2023-01-18T13:34:29.934Z,7.22
2023-01-18T13:37:13.861Z,5.43
2023-01-18T13:39:48.774Z,7.82
2023-01-18T13:42:35.176Z,7.57
2023-01-18T13:45:19.776Z,6.63
2023-01-18T13:47:59.524Z,7.00
2023-01-18T13:50:49.907Z,5.45
2023-01-18T13:53:31.760Z,5.57
2023-01-18T13:56:28.945Z,6.63
2023-01-18T13:59:01.752Z,6.07
2023-01-18T14:01:35.162Z,6.40
2023-01-18T14:04:14.468Z,6.28
2023-01-18T14:06:46.509Z,8.18
2023-01-18T14:09:18.389Z,6.73
2023-01-18T14:11:53.944Z,6.15
2023-01-18T14:14:31.487Z,7.22
2023-01-18T14:17:08.340Z,6.57
2023-01-18T14:20:00.865Z,6.25
2023-01-18T14:22:41.509Z,5.77
2023-01-18T14:25:34.091Z,6.07
2023-01-18T14:28:09.111Z,6.70
2023-01-18T14:30:41.084Z,5.35
2023-01-18T14:33:16.597Z,6.07
2023-01-18T14:35:52.758Z,6.77
2023-01-18T14:38:22.371Z,6.78
2023-01-18T14:40:54.105Z,7.03
2023-01-18T14:43:28.048Z,8.68
2023-01-18T14:46:00.265Z,8.00
2023-01-18T14:48:31.517Z,8.93
2023-01-18T14:51:01.254Z,6.45
2023-01-18T14:53:33.846Z,6.47
2023-01-18T14:56:06.319Z,7.90
2023-01-18T14:58:38.263Z,9.98
2023-01-18T15:01:09.217Z,8.57
2023-01-18T15:03:38.093Z,6.20
2023-01-18T15:06:16.466Z,6.57
2023-01-18T15:08:46.756Z,6.95
2023-01-18T15:11:16.655Z,8.20
2023-01-18T15:13:49.585Z,10.57
2023-01-18T15:16:21.290Z,7.55
2023-01-18T15:18:51.158Z,6.95
2023-01-18T15:21:25.185Z,8.30
2023-01-18T15:23:56.004Z,7.22
2023-01-18T15:26:43.744Z,8.50
2023-01-18T15:29:25.904Z,9.18
2023-01-18T15:31:56.769Z,9.02
2023-01-18T15:34:31.318Z,7.35
2023-01-18T15:37:02.313Z,8.32
2023-01-18T15:39:32.612Z,8.57
2023-01-18T15:42:12.419Z,8.90
2023-01-18T15:44:48.641Z,13.30
2023-01-18T15:47:29.001Z,8.63
2023-01-18T15:49:59.980Z,8.35
2023-01-18T15:53:37.868Z,9.30
2023-01-18T15:56:08.578Z,8.30
2023-01-18T15:58:44.116Z,7.80
2023-01-18T16:01:20.893Z,6.10
2023-01-18T16:03:58.400Z,6.93
2023-01-18T16:06:32.948Z,6.53
2023-01-18T16:09:10.598Z,7.53
2023-01-18T16:11:49.888Z,7.88
2023-01-18T16:14:27.771Z,7.57
2023-01-18T16:16:57.267Z,7.07
2023-01-18T16:19:30.175Z,6.40
2023-01-18T16:22:02.037Z,10.38
2023-01-18T16:24:37.770Z,9.70
2023-01-18T16:27:11.622Z,7.10
2023-01-18T16:29:47.332Z,8.35
2023-01-18T16:32:29.347Z,6.70
2023-01-18T16:35:00.521Z,8.38
2023-01-18T16:37:30.745Z,7.65
2023-01-18T16:40:24.329Z,8.93
2023-01-18T16:43:01.217Z,7.88
2023-01-18T16:46:20.917Z,8.23
2023-01-18T16:48:50.670Z,8.30
2023-01-18T16:51:19.734Z,8.55
2023-01-18T16:53:49.601Z,9.43
2023-01-18T16:56:23.182Z,10.20
2023-01-18T16:58:51.658Z,8.13
2023-01-18T17:01:20.318Z,9.55
2023-01-18T17:03:50.857Z,7.90
2023-01-18T17:06:23.814Z,7.57
2023-01-18T17:08:54.764Z,9.68
2023-01-18T17:11:23.185Z,8.30
2023-01-18T17:13:57.498Z,9.75
2023-01-18T17:16:27.261Z,7.40
2023-01-18T17:18:55.853Z,8.07
2023-01-18T17:21:25.496Z,8.13
2023-01-18T17:23:56.700Z,8.13
2023-01-18T17:26:25.217Z,8.48
2023-01-18T17:28:55.256Z,9.00
2023-01-18T17:31:26.950Z,8.55
2023-01-18T17:33:55.395Z,9.45
2023-01-18T17:36:24.104Z,9.53
2023-01-18T17:38:55.200Z,8.75
2023-01-18T17:41:27.649Z,9.25
2023-01-18T17:43:57.280Z,8.75
2023-01-18T17:46:25.757Z,8.48
2023-01-18T17:48:56.329Z,10.97
2023-01-18T17:51:26.959Z,9.80
2023-01-18T17:54:00.635Z,10.18
2023-01-18T17:56:29.214Z,10.43
2023-01-18T17:58:57.778Z,9.40
2023-01-18T18:01:26.380Z,10.27
2023-01-18T18:03:54.913Z,9.63
2023-01-18T18:07:32.261Z,9.30
2023-01-18T18:10:02.102Z,10.40
2023-01-18T18:12:47.365Z,10.95
2023-01-18T18:15:16.029Z,11.20
2023-01-18T18:17:46.031Z,9.27
2023-01-18T18:20:29.672Z,10.98
2023-01-18T18:23:01.208Z,9.80
2023-01-18T18:25:31.383Z,10.73
2023-01-18T18:31:03.232Z,12.45
2023-01-18T18:33:33.891Z,10.23
2023-01-18T18:36:14.733Z,10.90
2023-01-18T18:38:43.519Z,8.55
2023-01-18T18:41:16.840Z,11.13
2023-01-18T18:43:45.497Z,8.02
2023-01-18T18:46:15.195Z,9.30
2023-01-18T18:48:47.799Z,9.60
2023-01-18T18:51:18.531Z,11.63
2023-01-18T18:53:49.357Z,10.87
2023-01-18T18:56:24.296Z,8.02
2023-01-18T18:59:00.563Z,8.52
2023-01-18T19:01:32.418Z,10.25
2023-01-18T19:04:01.634Z,9.65
2023-01-18T19:06:30.496Z,10.40
2023-01-18T19:09:02.788Z,9.88
2023-01-18T19:11:33.382Z,10.43
2023-01-18T19:14:12.515Z,8.95
2023-01-18T19:16:44.920Z,11.20
2023-01-18T19:19:13.718Z,9.30
2023-01-18T19:21:44.750Z,10.70
2023-01-18T19:24:19.316Z,10.57
2023-01-18T19:26:52.171Z,13.30
2023-01-18T19:29:21.361Z,9.63
2023-01-18T19:31:50.557Z,9.57
2023-01-18T19:34:21.505Z,9.65
2023-01-18T19:36:52.739Z,10.52
2023-01-18T19:39:22.606Z,11.50
2023-01-18T19:41:58.027Z,9.65
2023-01-18T19:44:27.616Z,16.50
2023-01-18T19:50:17.682Z,10.32
2023-01-18T19:57:01.073Z,13.82
2023-01-18T19:59:29.970Z,10.43
2023-01-18T20:01:58.699Z,12.10
2023-01-18T20:04:27.263Z,13.15
2023-01-18T20:06:57.291Z,11.98
2023-01-18T20:09:42.829Z,12.50
2023-01-18T20:12:15.346Z,10.83
2023-01-18T20:14:46.274Z,11.52
2023-01-18T20:17:15.576Z,12.43
2023-01-18T20:19:44.505Z,12.52
2023-01-18T20:22:13.134Z,13.63
2023-01-18T20:24:41.816Z,12.67
2023-01-18T20:27:16.234Z,12.85
2023-01-18T20:29:51.107Z,12.40
2023-01-18T20:32:19.977Z,12.48
2023-01-18T20:34:48.724Z,12.77
2023-01-18T20:37:17.732Z,12.83
2023-01-18T20:39:46.511Z,16.48
2023-01-18T20:42:15.635Z,16.63
2023-01-18T20:44:48.756Z,15.98
2023-01-18T20:47:19.025Z,14.90
2023-01-18T20:49:51.596Z,11.77
2023-01-18T21:00:46.526Z,12.48
2023-01-18T21:03:17.907Z,16.00
2023-01-18T21:05:46.800Z,29.30
2023-01-18T21:08:17.558Z,47.60
2023-01-18T21:10:46.245Z,37.50
2023-01-18T21:13:15.255Z,39.17
2023-01-18T21:15:46.092Z,19.38
2023-01-18T21:18:15.599Z,30.07
2023-01-18T21:20:52.930Z,38.03
2023-01-18T21:23:28.101Z,48.78
2023-01-18T21:26:00.941Z,21.38
2023-01-18T21:28:29.584Z,11.15
2023-01-18T21:30:58.519Z,13.57
2023-01-18T21:33:28.040Z,12.38
2023-01-18T21:36:04.290Z,32.40
2023-01-18T21:38:33.084Z,35.17
2023-01-18T21:41:25.549Z,47.33
2023-01-18T21:44:12.565Z,30.23
2023-01-18T21:46:46.252Z,16.95
2023-01-18T21:49:43.029Z,12.70
2023-01-18T21:52:39.005Z,34.28
2023-01-18T21:55:11.615Z,19.75
2023-01-18T21:57:41.498Z,55.57
2023-01-18T22:00:14.476Z,19.92
2023-01-18T22:02:51.697Z,20.58
2023-01-18T22:05:22.160Z,22.38
2023-01-18T22:07:54.652Z,16.65
2023-01-18T22:10:24.366Z,31.97
2023-01-18T22:12:52.902Z,17.08
2023-01-18T22:15:23.184Z,25.15
2023-01-18T22:17:56.826Z,23.92
2023-01-18T22:20:32.155Z,40.67
2023-01-18T22:23:17.920Z,18.67
2023-01-18T22:29:53.515Z,15.75
2023-01-18T22:32:22.270Z,13.68
2023-01-18T22:34:50.855Z,13.50
2023-01-18T22:37:20.686Z,17.13
2023-01-18T22:39:50.506Z,15.80
2023-01-18T22:42:19.033Z,17.52
2023-01-18T22:44:47.546Z,15.98
2023-01-18T22:47:16.272Z,15.98
2023-01-18T22:49:44.951Z,16.17
2023-01-18T22:52:13.525Z,15.13
2023-01-18T22:54:42.558Z,14.88
2023-01-18T22:57:12.526Z,13.63
2023-01-18T22:59:41.527Z,12.85
2023-01-18T23:02:16.269Z,16.53
2023-01-18T23:04:44.803Z,15.05
2023-01-18T23:07:14.259Z,13.57
2023-01-18T23:09:43.169Z,14.35
2023-01-18T23:12:12.834Z,15.70
2023-01-18T23:14:59.456Z,11.80
2023-01-18T23:17:40.416Z,15.02
2023-01-18T23:20:11.558Z,13.57
2023-01-18T23:22:40.090Z,18.08
2023-01-18T23:25:10.374Z,13.98
2023-01-18T23:27:43.219Z,15.47
2023-01-18T23:30:12.649Z,19.25
2023-01-18T23:32:45.304Z,15.10
2023-01-18T23:35:13.863Z,14.73
2023-01-18T23:37:42.470Z,17.38
2023-01-18T23:40:29.544Z,13.67
2023-01-18T23:43:16.721Z,13.50
2023-01-18T23:46:03.100Z,13.55
2023-01-18T23:51:55.094Z,13.38
2023-01-18T23:54:41.312Z,14.07
